sensor_id;sensor_type;location;lat;lon;timestamp;pressure;altitude;pressure_sealevel;temperature;humidity
68873;BME280;55907;50.806;12.882;2023-09-08T00:00:14;979.1;;;16.5;73.4
68873;BME280;55907;50.806;12.882;2023-09-08T00:03:15;979.1;;;16.4;74.2
68873;BME280;55907;50.806;12.882;2023-09-08T00:06:17;979.1;;;16.3;74.0
68873;BME280;55907;50.806;12.882;2023-09-08T00:09:18;979.0;;;16.2;74.4
68873;BME280;55907;50.806;12.882;2023-09-08T00:12:19;979.1;;;16.1;76.4
68873;BME280;55907;50.806;12.882;2023-09-08T00:15:21;979.1;;;16.1;76.5
68873;BME280;55907;50.806;12.882;2023-09-08T00:18:22;979.1;;;16.0;77.2
68873;BME280;55907;50.806;12.882;2023-09-08T00:21:24;979.1;;;16.0;76.2
68873;BME280;55907;50.806;12.882;2023-09-08T00:24:25;979.1;;;16.0;77.6
68873;BME280;55907;50.806;12.882;2023-09-08T00:27:27;979.1;;;15.9;78.0
68873;BME280;55907;50.806;12.882;2023-09-08T00:30:28;979.1;;;15.9;77.6
68873;BME280;55907;50.806;12.882;2023-09-08T00:33:30;979.1;;;15.9;79.4
68873;BME280;55907;50.806;12.882;2023-09-08T00:36:31;979.1;;;15.9;78.5
68873;BME280;55907;50.806;12.882;2023-09-08T00:39:34;979.1;;;15.8;79.3
68873;BME280;55907;50.806;12.882;2023-09-08T00:42:34;979.1;;;15.8;79.2
68873;BME280;55907;50.806;12.882;2023-09-08T00:45:38;979.1;;;15.8;80.1
68873;BME280;55907;50.806;12.882;2023-09-08T00:48:37;979.1;;;15.7;80.1
68873;BME280;55907;50.806;12.882;2023-09-08T00:51:39;979.1;;;15.7;79.1
68873;BME280;55907;50.806;12.882;2023-09-08T00:54:40;979.0;;;15.6;80.4
68873;BME280;55907;50.806;12.882;2023-09-08T00:57:41;979.0;;;15.6;80.1
68873;BME280;55907;50.806;12.882;2023-09-08T01:00:44;979.0;;;15.6;75.8
68873;BME280;55907;50.806;12.882;2023-09-08T01:03:44;979.1;;;15.7;76.6
68873;BME280;55907;50.806;12.882;2023-09-08T01:06:46;979.0;;;15.7;75.9
68873;BME280;55907;50.806;12.882;2023-09-08T01:09:48;979.0;;;15.7;77.5
68873;BME280;55907;50.806;12.882;2023-09-08T01:12:49;979.0;;;15.8;76.3
68873;BME280;55907;50.806;12.882;2023-09-08T01:15:50;979.1;;;15.8;77.0
68873;BME280;55907;50.806;12.882;2023-09-08T01:18:52;979.0;;;15.8;77.1
68873;BME280;55907;50.806;12.882;2023-09-08T01:22:11;979.0;;;15.8;77.9
68873;BME280;55907;50.806;12.882;2023-09-08T01:25:03;979.0;;;15.8;77.2
68873;BME280;55907;50.806;12.882;2023-09-08T01:27:58;979.0;;;15.8;77.9
68873;BME280;55907;50.806;12.882;2023-09-08T01:30:58;978.9;;;15.7;78.1
68873;BME280;55907;50.806;12.882;2023-09-08T01:34:00;979.0;;;15.7;78.5
68873;BME280;55907;50.806;12.882;2023-09-08T01:37:01;978.9;;;15.7;78.5
68873;BME280;55907;50.806;12.882;2023-09-08T01:40:02;978.9;;;15.7;77.0
68873;BME280;55907;50.806;12.882;2023-09-08T01:43:04;979.0;;;15.7;77.4
68873;BME280;55907;50.806;12.882;2023-09-08T01:46:05;979.0;;;15.7;78.0
68873;BME280;55907;50.806;12.882;2023-09-08T01:49:07;979.0;;;15.6;78.8
68873;BME280;55907;50.806;12.882;2023-09-08T01:52:08;979.0;;;15.6;78.5
68873;BME280;55907;50.806;12.882;2023-09-08T01:55:10;979.0;;;15.6;79.0
68873;BME280;55907;50.806;12.882;2023-09-08T01:58:11;979.0;;;15.6;79.8
68873;BME280;55907;50.806;12.882;2023-09-08T02:01:12;978.9;;;15.6;79.0
68873;BME280;55907;50.806;12.882;2023-09-08T02:04:14;978.9;;;15.6;79.5
68873;BME280;55907;50.806;12.882;2023-09-08T02:07:15;979.0;;;15.6;79.3
68873;BME280;55907;50.806;12.882;2023-09-08T02:10:17;978.9;;;15.6;79.5
68873;BME280;55907;50.806;12.882;2023-09-08T02:13:18;978.9;;;15.5;80.6
68873;BME280;55907;50.806;12.882;2023-09-08T02:16:20;978.9;;;15.6;79.8
68873;BME280;55907;50.806;12.882;2023-09-08T02:19:21;979.0;;;15.5;80.8
68873;BME280;55907;50.806;12.882;2023-09-08T02:22:23;979.0;;;15.6;80.6
68873;BME280;55907;50.806;12.882;2023-09-08T02:25:24;979.0;;;15.6;80.8
68873;BME280;55907;50.806;12.882;2023-09-08T02:28:26;979.0;;;15.6;80.9
68873;BME280;55907;50.806;12.882;2023-09-08T02:31:28;979.0;;;15.6;80.9
68873;BME280;55907;50.806;12.882;2023-09-08T02:34:29;979.1;;;15.6;80.5
68873;BME280;55907;50.806;12.882;2023-09-08T02:37:30;979.1;;;15.6;80.9
68873;BME280;55907;50.806;12.882;2023-09-08T02:40:32;979.1;;;15.6;80.8
68873;BME280;55907;50.806;12.882;2023-09-08T02:43:33;979.1;;;15.6;80.8
68873;BME280;55907;50.806;12.882;2023-09-08T02:46:35;979.1;;;15.6;80.7
68873;BME280;55907;50.806;12.882;2023-09-08T02:49:36;979.0;;;15.6;80.7
68873;BME280;55907;50.806;12.882;2023-09-08T02:52:37;979.0;;;15.5;81.2
68873;BME280;55907;50.806;12.882;2023-09-08T02:55:39;979.0;;;15.5;81.1
68873;BME280;55907;50.806;12.882;2023-09-08T02:58:40;978.9;;;15.5;81.3
68873;BME280;55907;50.806;12.882;2023-09-08T03:01:42;978.9;;;15.5;79.8
68873;BME280;55907;50.806;12.882;2023-09-08T03:04:43;979.0;;;15.4;81.1
68873;BME280;55907;50.806;12.882;2023-09-08T03:07:47;979.0;;;15.5;80.9
68873;BME280;55907;50.806;12.882;2023-09-08T03:10:46;978.9;;;15.5;80.9
68873;BME280;55907;50.806;12.882;2023-09-08T03:13:48;978.9;;;15.5;80.3
68873;BME280;55907;50.806;12.882;2023-09-08T03:16:49;978.9;;;15.5;81.3
68873;BME280;55907;50.806;12.882;2023-09-08T03:19:51;978.8;;;15.5;79.5
68873;BME280;55907;50.806;12.882;2023-09-08T03:22:52;978.8;;;15.5;80.3
68873;BME280;55907;50.806;12.882;2023-09-08T03:25:54;978.8;;;15.5;80.8
68873;BME280;55907;50.806;12.882;2023-09-08T03:28:55;978.8;;;15.5;80.4
68873;BME280;55907;50.806;12.882;2023-09-08T03:31:57;978.8;;;15.5;80.4
68873;BME280;55907;50.806;12.882;2023-09-08T03:34:58;978.8;;;15.5;80.0
68873;BME280;55907;50.806;12.882;2023-09-08T03:38:00;978.8;;;15.4;80.5
68873;BME280;55907;50.806;12.882;2023-09-08T03:41:01;978.7;;;15.4;79.4
68873;BME280;55907;50.806;12.882;2023-09-08T03:44:03;978.7;;;15.4;81.3
68873;BME280;55907;50.806;12.882;2023-09-08T03:47:04;978.7;;;15.4;81.4
68873;BME280;55907;50.806;12.882;2023-09-08T03:50:08;978.7;;;15.3;82.3
68873;BME280;55907;50.806;12.882;2023-09-08T03:53:07;978.7;;;15.2;82.7
68873;BME280;55907;50.806;12.882;2023-09-08T03:56:08;978.7;;;15.2;83.0
68873;BME280;55907;50.806;12.882;2023-09-08T03:59:10;978.7;;;15.3;83.0
68873;BME280;55907;50.806;12.882;2023-09-08T04:02:11;978.7;;;15.3;82.9
68873;BME280;55907;50.806;12.882;2023-09-08T04:05:13;978.7;;;15.3;83.1
68873;BME280;55907;50.806;12.882;2023-09-08T04:08:14;978.7;;;15.2;83.4
68873;BME280;55907;50.806;12.882;2023-09-08T04:11:16;978.7;;;15.2;83.4
68873;BME280;55907;50.806;12.882;2023-09-08T04:14:17;978.7;;;15.2;83.3
68873;BME280;55907;50.806;12.882;2023-09-08T04:17:19;978.7;;;15.2;83.2
68873;BME280;55907;50.806;12.882;2023-09-08T04:20:20;978.7;;;15.2;83.4
68873;BME280;55907;50.806;12.882;2023-09-08T04:23:22;978.7;;;15.1;83.4
68873;BME280;55907;50.806;12.882;2023-09-08T04:26:23;978.7;;;15.1;83.2
68873;BME280;55907;50.806;12.882;2023-09-08T04:29:25;978.8;;;15.0;84.7
68873;BME280;55907;50.806;12.882;2023-09-08T04:32:26;978.8;;;14.9;84.8
68873;BME280;55907;50.806;12.882;2023-09-08T04:35:27;978.8;;;14.8;85.1
68873;BME280;55907;50.806;12.882;2023-09-08T04:38:29;978.8;;;14.7;85.2
68873;BME280;55907;50.806;12.882;2023-09-08T04:41:30;978.7;;;14.6;86.2
68873;BME280;55907;50.806;12.882;2023-09-08T04:44:32;978.7;;;14.6;86.1
68873;BME280;55907;50.806;12.882;2023-09-08T04:47:33;978.7;;;14.5;87.0
68873;BME280;55907;50.806;12.882;2023-09-08T04:50:35;978.7;;;14.5;86.9
68873;BME280;55907;50.806;12.882;2023-09-08T04:53:36;978.7;;;14.6;87.0
68873;BME280;55907;50.806;12.882;2023-09-08T04:56:39;978.6;;;14.6;87.0
68873;BME280;55907;50.806;12.882;2023-09-08T04:59:39;978.6;;;14.7;86.4
68873;BME280;55907;50.806;12.882;2023-09-08T05:02:41;978.7;;;14.7;86.1
68873;BME280;55907;50.806;12.882;2023-09-08T05:05:42;978.7;;;14.8;85.0
68873;BME280;55907;50.806;12.882;2023-09-08T05:08:44;978.7;;;14.8;84.8
68873;BME280;55907;50.806;12.882;2023-09-08T05:11:45;978.7;;;14.9;83.8
68873;BME280;55907;50.806;12.882;2023-09-08T05:14:47;978.7;;;14.9;84.1
68873;BME280;55907;50.806;12.882;2023-09-08T05:17:48;978.7;;;14.9;83.6
68873;BME280;55907;50.806;12.882;2023-09-08T05:20:50;978.7;;;15.0;83.5
68873;BME280;55907;50.806;12.882;2023-09-08T05:23:51;978.7;;;15.1;83.4
68873;BME280;55907;50.806;12.882;2023-09-08T05:26:53;978.7;;;15.2;83.0
68873;BME280;55907;50.806;12.882;2023-09-08T05:29:54;978.7;;;15.4;81.7
68873;BME280;55907;50.806;12.882;2023-09-08T05:32:56;978.7;;;15.6;80.3
68873;BME280;55907;50.806;12.882;2023-09-08T05:35:57;978.7;;;15.8;79.2
68873;BME280;55907;50.806;12.882;2023-09-08T05:38:59;978.7;;;15.9;79.8
68873;BME280;55907;50.806;12.882;2023-09-08T05:42:00;978.8;;;16.0;78.6
68873;BME280;55907;50.806;12.882;2023-09-08T05:45:02;978.8;;;16.1;78.4
68873;BME280;55907;50.806;12.882;2023-09-08T05:48:03;978.8;;;16.2;78.8
68873;BME280;55907;50.806;12.882;2023-09-08T05:51:04;978.8;;;16.2;78.6
68873;BME280;55907;50.806;12.882;2023-09-08T05:54:06;978.8;;;16.3;78.1
68873;BME280;55907;50.806;12.882;2023-09-08T05:57:07;978.8;;;16.4;77.6
68873;BME280;55907;50.806;12.882;2023-09-08T06:00:09;978.8;;;16.5;78.2
68873;BME280;55907;50.806;12.882;2023-09-08T06:03:10;978.8;;;16.6;78.0
68873;BME280;55907;50.806;12.882;2023-09-08T06:06:12;978.8;;;16.6;78.3
68873;BME280;55907;50.806;12.882;2023-09-08T06:09:13;978.7;;;16.7;77.8
68873;BME280;55907;50.806;12.882;2023-09-08T06:12:15;978.7;;;16.9;77.5
68873;BME280;55907;50.806;12.882;2023-09-08T06:15:16;978.8;;;17.0;77.4
68873;BME280;55907;50.806;12.882;2023-09-08T06:18:18;978.8;;;17.2;76.4
68873;BME280;55907;50.806;12.882;2023-09-08T06:21:19;978.8;;;17.4;75.4
68873;BME280;55907;50.806;12.882;2023-09-08T06:24:21;978.8;;;17.6;74.6
68873;BME280;55907;50.806;12.882;2023-09-08T06:27:22;978.8;;;17.7;74.5
68873;BME280;55907;50.806;12.882;2023-09-08T06:30:23;978.8;;;17.9;73.7
68873;BME280;55907;50.806;12.882;2023-09-08T06:33:25;978.8;;;18.0;72.9
68873;BME280;55907;50.806;12.882;2023-09-08T06:36:26;978.8;;;18.0;72.8
68873;BME280;55907;50.806;12.882;2023-09-08T06:39:28;978.8;;;18.1;72.5
68873;BME280;55907;50.806;12.882;2023-09-08T06:42:29;978.8;;;18.3;71.8
68873;BME280;55907;50.806;12.882;2023-09-08T06:45:31;978.8;;;18.5;71.2
68873;BME280;55907;50.806;12.882;2023-09-08T06:48:32;978.9;;;18.7;70.9
68873;BME280;55907;50.806;12.882;2023-09-08T06:51:33;978.8;;;19.0;69.0
68873;BME280;55907;50.806;12.882;2023-09-08T06:54:35;978.9;;;19.3;67.8
68873;BME280;55907;50.806;12.882;2023-09-08T06:57:37;978.9;;;19.5;66.8
68873;BME280;55907;50.806;12.882;2023-09-08T07:00:38;978.9;;;19.6;66.6
68873;BME280;55907;50.806;12.882;2023-09-08T07:03:39;978.8;;;19.8;65.7
68873;BME280;55907;50.806;12.882;2023-09-08T07:06:41;978.8;;;19.9;66.1
68873;BME280;55907;50.806;12.882;2023-09-08T07:09:42;978.8;;;20.1;66.3
68873;BME280;55907;50.806;12.882;2023-09-08T07:12:44;978.8;;;20.1;64.8
68873;BME280;55907;50.806;12.882;2023-09-08T07:15:45;978.8;;;20.2;64.4
68873;BME280;55907;50.806;12.882;2023-09-08T07:18:46;978.8;;;20.4;64.2
68873;BME280;55907;50.806;12.882;2023-09-08T07:21:48;978.7;;;20.5;63.5
68873;BME280;55907;50.806;12.882;2023-09-08T07:24:49;978.8;;;20.7;62.8
68873;BME280;55907;50.806;12.882;2023-09-08T07:27:51;978.7;;;20.8;62.9
68873;BME280;55907;50.806;12.882;2023-09-08T07:30:52;978.7;;;21.0;61.6
68873;BME280;55907;50.806;12.882;2023-09-08T07:33:54;978.7;;;21.0;61.8
68873;BME280;55907;50.806;12.882;2023-09-08T07:36:55;978.7;;;21.2;62.0
68873;BME280;55907;50.806;12.882;2023-09-08T07:39:56;978.8;;;21.3;61.5
68873;BME280;55907;50.806;12.882;2023-09-08T07:42:58;978.7;;;21.4;61.2
68873;BME280;55907;50.806;12.882;2023-09-08T07:45:59;978.8;;;21.5;60.8
68873;BME280;55907;50.806;12.882;2023-09-08T07:49:01;978.8;;;21.6;60.7
68873;BME280;55907;50.806;12.882;2023-09-08T07:52:03;978.8;;;21.7;59.2
68873;BME280;55907;50.806;12.882;2023-09-08T07:55:04;978.7;;;21.8;59.1
68873;BME280;55907;50.806;12.882;2023-09-08T07:58:05;978.7;;;22.0;59.2
68873;BME280;55907;50.806;12.882;2023-09-08T08:01:07;978.8;;;22.1;58.1
68873;BME280;55907;50.806;12.882;2023-09-08T08:04:08;978.7;;;22.2;58.2
68873;BME280;55907;50.806;12.882;2023-09-08T08:07:09;978.8;;;22.3;57.2
68873;BME280;55907;50.806;12.882;2023-09-08T08:10:12;978.8;;;22.4;56.8
68873;BME280;55907;50.806;12.882;2023-09-08T08:13:12;978.8;;;22.5;57.1
68873;BME280;55907;50.806;12.882;2023-09-08T08:16:13;978.8;;;22.6;56.4
68873;BME280;55907;50.806;12.882;2023-09-08T08:19:15;978.8;;;22.8;55.2
68873;BME280;55907;50.806;12.882;2023-09-08T08:22:16;978.8;;;23.0;55.1
68873;BME280;55907;50.806;12.882;2023-09-08T08:25:18;978.8;;;23.2;56.4
68873;BME280;55907;50.806;12.882;2023-09-08T08:28:19;978.8;;;23.2;53.7
68873;BME280;55907;50.806;12.882;2023-09-08T08:31:20;978.7;;;23.4;54.6
68873;BME280;55907;50.806;12.882;2023-09-08T08:34:22;978.7;;;23.6;52.9
68873;BME280;55907;50.806;12.882;2023-09-08T08:37:23;978.7;;;23.8;49.2
68873;BME280;55907;50.806;12.882;2023-09-08T08:40:25;978.7;;;24.0;47.9
68873;BME280;55907;50.806;12.882;2023-09-08T08:43:26;978.7;;;24.3;46.8
68873;BME280;55907;50.806;12.882;2023-09-08T08:46:27;978.7;;;24.3;45.3
68873;BME280;55907;50.806;12.882;2023-09-08T08:49:31;978.6;;;24.6;44.6
68873;BME280;55907;50.806;12.882;2023-09-08T08:52:30;978.7;;;24.9;42.7
68873;BME280;55907;50.806;12.882;2023-09-08T08:55:33;978.6;;;25.3;42.1
68873;BME280;55907;50.806;12.882;2023-09-08T08:58:33;978.6;;;25.9;40.7
68873;BME280;55907;50.806;12.882;2023-09-08T09:01:35;978.6;;;26.7;39.7
68873;BME280;55907;50.806;12.882;2023-09-08T09:04:37;978.6;;;27.4;36.8
68873;BME280;55907;50.806;12.882;2023-09-08T09:07:38;978.6;;;28.3;35.3
68873;BME280;55907;50.806;12.882;2023-09-08T09:10:38;978.6;;;29.0;33.6
68873;BME280;55907;50.806;12.882;2023-09-08T09:13:40;978.6;;;30.1;32.5
68873;BME280;55907;50.806;12.882;2023-09-08T09:16:42;978.6;;;31.1;31.3
68873;BME280;55907;50.806;12.882;2023-09-08T09:19:42;978.6;;;31.7;32.1
68873;BME280;55907;50.806;12.882;2023-09-08T09:22:44;978.6;;;32.5;30.0
68873;BME280;55907;50.806;12.882;2023-09-08T09:25:45;978.6;;;33.0;30.4
68873;BME280;55907;50.806;12.882;2023-09-08T09:28:47;978.6;;;33.3;27.4
68873;BME280;55907;50.806;12.882;2023-09-08T09:31:52;978.7;;;33.6;28.8
68873;BME280;55907;50.806;12.882;2023-09-08T09:34:51;978.6;;;33.9;27.1
68873;BME280;55907;50.806;12.882;2023-09-08T09:37:51;978.6;;;34.1;27.4
68873;BME280;55907;50.806;12.882;2023-09-08T09:40:52;978.6;;;33.8;27.2
68873;BME280;55907;50.806;12.882;2023-09-08T09:43:54;978.6;;;33.5;25.2
68873;BME280;55907;50.806;12.882;2023-09-08T09:46:55;978.6;;;33.8;26.5
68873;BME280;55907;50.806;12.882;2023-09-08T09:49:56;978.6;;;33.7;26.3
68873;BME280;55907;50.806;12.882;2023-09-08T09:52:58;978.5;;;33.9;25.7
68873;BME280;55907;50.806;12.882;2023-09-08T09:55:59;978.6;;;33.5;26.0
68873;BME280;55907;50.806;12.882;2023-09-08T09:59:01;978.6;;;33.4;24.9
68873;BME280;55907;50.806;12.882;2023-09-08T10:02:02;978.6;;;33.0;25.6
68873;BME280;55907;50.806;12.882;2023-09-08T10:05:11;978.6;;;32.7;25.8
68873;BME280;55907;50.806;12.882;2023-09-08T10:08:05;978.6;;;32.5;26.4
68873;BME280;55907;50.806;12.882;2023-09-08T10:11:07;978.5;;;32.6;26.8
68873;BME280;55907;50.806;12.882;2023-09-08T10:14:08;978.6;;;32.6;26.4
68873;BME280;55907;50.806;12.882;2023-09-08T10:17:12;978.6;;;32.9;26.8
68873;BME280;55907;50.806;12.882;2023-09-08T10:20:10;978.5;;;32.7;25.9
68873;BME280;55907;50.806;12.882;2023-09-08T10:23:12;978.5;;;32.5;26.0
68873;BME280;55907;50.806;12.882;2023-09-08T10:26:15;978.4;;;32.5;26.8
68873;BME280;55907;50.806;12.882;2023-09-08T10:29:14;978.4;;;32.5;26.8
68873;BME280;55907;50.806;12.882;2023-09-08T10:32:16;978.4;;;32.6;27.2
68873;BME280;55907;50.806;12.882;2023-09-08T10:35:17;978.4;;;32.5;25.3
68873;BME280;55907;50.806;12.882;2023-09-08T10:38:22;978.4;;;32.5;26.9
68873;BME280;55907;50.806;12.882;2023-09-08T10:41:28;978.4;;;32.5;27.0
68873;BME280;55907;50.806;12.882;2023-09-08T10:44:21;978.4;;;32.2;26.3
68873;BME280;55907;50.806;12.882;2023-09-08T10:47:23;978.3;;;31.8;25.4
68873;BME280;55907;50.806;12.882;2023-09-08T10:50:31;978.3;;;31.7;25.6
68873;BME280;55907;50.806;12.882;2023-09-08T10:53:25;978.3;;;31.5;25.1
68873;BME280;55907;50.806;12.882;2023-09-08T10:56:27;978.3;;;31.5;25.6
68873;BME280;55907;50.806;12.882;2023-09-08T10:59:28;978.3;;;31.5;26.9
68873;BME280;55907;50.806;12.882;2023-09-08T11:02:32;978.3;;;31.6;24.9
68873;BME280;55907;50.806;12.882;2023-09-08T11:05:30;978.2;;;31.4;24.9
68873;BME280;55907;50.806;12.882;2023-09-08T11:08:33;978.2;;;31.4;26.5
68873;BME280;55907;50.806;12.882;2023-09-08T11:11:33;978.2;;;31.3;26.4
68873;BME280;55907;50.806;12.882;2023-09-08T11:14:34;978.2;;;31.3;26.4
68873;BME280;55907;50.806;12.882;2023-09-08T11:17:38;978.2;;;31.5;26.7
68873;BME280;55907;50.806;12.882;2023-09-08T11:20:37;978.2;;;31.5;27.0
68873;BME280;55907;50.806;12.882;2023-09-08T11:23:39;978.2;;;31.6;28.0
68873;BME280;55907;50.806;12.882;2023-09-08T11:26:40;978.1;;;31.7;26.6
68873;BME280;55907;50.806;12.882;2023-09-08T11:29:41;978.1;;;31.8;26.6
68873;BME280;55907;50.806;12.882;2023-09-08T11:32:42;978.1;;;32.0;26.8
68873;BME280;55907;50.806;12.882;2023-09-08T11:35:45;978.1;;;31.9;25.5
68873;BME280;55907;50.806;12.882;2023-09-08T11:38:45;978.1;;;31.7;26.2
68873;BME280;55907;50.806;12.882;2023-09-08T11:41:46;978.1;;;31.7;26.7
68873;BME280;55907;50.806;12.882;2023-09-08T11:44:48;978.1;;;31.7;25.9
68873;BME280;55907;50.806;12.882;2023-09-08T11:47:49;978.0;;;31.8;26.5
68873;BME280;55907;50.806;12.882;2023-09-08T11:50:53;978.1;;;31.8;26.6
68873;BME280;55907;50.806;12.882;2023-09-08T11:53:52;978.1;;;31.8;26.1
68873;BME280;55907;50.806;12.882;2023-09-08T11:59:55;978.1;;;31.8;26.3
68873;BME280;55907;50.806;12.882;2023-09-08T12:05:57;978.0;;;31.5;25.5
68873;BME280;55907;50.806;12.882;2023-09-08T12:09:00;977.9;;;31.5;25.7
68873;BME280;55907;50.806;12.882;2023-09-08T12:12:02;978.0;;;31.6;26.8
68873;BME280;55907;50.806;12.882;2023-09-08T12:15:02;978.0;;;31.6;25.8
68873;BME280;55907;50.806;12.882;2023-09-08T12:18:06;977.9;;;31.5;25.4
68873;BME280;55907;50.806;12.882;2023-09-08T12:21:04;977.8;;;31.4;25.9
68873;BME280;55907;50.806;12.882;2023-09-08T12:24:06;977.9;;;31.4;24.7
68873;BME280;55907;50.806;12.882;2023-09-08T12:27:07;977.8;;;31.1;24.8
68873;BME280;55907;50.806;12.882;2023-09-08T12:30:09;977.8;;;31.3;25.8
68873;BME280;55907;50.806;12.882;2023-09-08T12:33:10;977.8;;;31.4;24.9
68873;BME280;55907;50.806;12.882;2023-09-08T12:36:12;977.7;;;31.3;23.8
68873;BME280;55907;50.806;12.882;2023-09-08T12:39:12;977.8;;;31.2;26.2
68873;BME280;55907;50.806;12.882;2023-09-08T12:42:14;977.7;;;31.1;24.6
68873;BME280;55907;50.806;12.882;2023-09-08T12:45:15;977.7;;;31.0;25.2
68873;BME280;55907;50.806;12.882;2023-09-08T12:48:16;977.7;;;30.9;24.8
68873;BME280;55907;50.806;12.882;2023-09-08T12:51:18;977.6;;;30.8;23.8
68873;BME280;55907;50.806;12.882;2023-09-08T12:54:19;977.6;;;30.7;25.8
68873;BME280;55907;50.806;12.882;2023-09-08T12:57:21;977.6;;;30.7;25.6
68873;BME280;55907;50.806;12.882;2023-09-08T13:00:22;977.6;;;30.7;25.8
68873;BME280;55907;50.806;12.882;2023-09-08T13:03:23;977.6;;;30.8;24.3
68873;BME280;55907;50.806;12.882;2023-09-08T13:06:25;977.6;;;30.9;24.4
68873;BME280;55907;50.806;12.882;2023-09-08T13:09:26;977.6;;;31.0;24.6
68873;BME280;55907;50.806;12.882;2023-09-08T13:12:27;977.5;;;31.0;25.7
68873;BME280;55907;50.806;12.882;2023-09-08T13:15:29;977.5;;;30.9;25.9
68873;BME280;55907;50.806;12.882;2023-09-08T13:18:30;977.5;;;30.8;24.6
68873;BME280;55907;50.806;12.882;2023-09-08T13:21:32;977.5;;;30.8;25.6
68873;BME280;55907;50.806;12.882;2023-09-08T13:24:33;977.5;;;30.9;25.6
68873;BME280;55907;50.806;12.882;2023-09-08T13:27:34;977.4;;;30.8;24.8
68873;BME280;55907;50.806;12.882;2023-09-08T13:30:36;977.4;;;30.8;24.8
68873;BME280;55907;50.806;12.882;2023-09-08T13:33:37;977.4;;;30.8;25.7
68873;BME280;55907;50.806;12.882;2023-09-08T13:36:38;977.4;;;30.8;25.4
68873;BME280;55907;50.806;12.882;2023-09-08T13:39:40;977.4;;;30.9;25.5
68873;BME280;55907;50.806;12.882;2023-09-08T13:42:41;977.4;;;30.8;25.3
68873;BME280;55907;50.806;12.882;2023-09-08T13:45:43;977.4;;;30.7;25.5
68873;BME280;55907;50.806;12.882;2023-09-08T13:48:44;977.4;;;30.6;25.9
68873;BME280;55907;50.806;12.882;2023-09-08T13:51:46;977.4;;;30.7;26.9
68873;BME280;55907;50.806;12.882;2023-09-08T13:54:47;977.4;;;30.6;26.8
68873;BME280;55907;50.806;12.882;2023-09-08T13:57:48;977.3;;;30.6;27.2
68873;BME280;55907;50.806;12.882;2023-09-08T14:00:49;977.2;;;30.5;27.2
68873;BME280;55907;50.806;12.882;2023-09-08T14:03:51;977.3;;;30.4;26.6
68873;BME280;55907;50.806;12.882;2023-09-08T14:06:53;977.3;;;30.2;26.9
68873;BME280;55907;50.806;12.882;2023-09-08T14:09:53;977.3;;;30.3;27.7
68873;BME280;55907;50.806;12.882;2023-09-08T14:12:55;977.3;;;30.3;28.3
68873;BME280;55907;50.806;12.882;2023-09-08T14:15:56;977.3;;;30.3;27.8
68873;BME280;55907;50.806;12.882;2023-09-08T14:18:58;977.3;;;30.2;27.9
68873;BME280;55907;50.806;12.882;2023-09-08T14:21:59;977.3;;;30.4;28.3
68873;BME280;55907;50.806;12.882;2023-09-08T14:25:00;977.2;;;30.4;28.3
68873;BME280;55907;50.806;12.882;2023-09-08T14:28:02;977.2;;;30.4;28.4
68873;BME280;55907;50.806;12.882;2023-09-08T14:31:03;977.2;;;30.4;28.9
68873;BME280;55907;50.806;12.882;2023-09-08T14:34:04;977.2;;;30.3;28.6
68873;BME280;55907;50.806;12.882;2023-09-08T14:37:06;977.2;;;30.2;28.9
68873;BME280;55907;50.806;12.882;2023-09-08T14:40:08;977.2;;;30.0;29.7
68873;BME280;55907;50.806;12.882;2023-09-08T14:43:08;977.2;;;30.0;30.2
68873;BME280;55907;50.806;12.882;2023-09-08T14:46:10;977.2;;;30.0;30.5
68873;BME280;55907;50.806;12.882;2023-09-08T14:49:11;977.2;;;29.9;30.8
68873;BME280;55907;50.806;12.882;2023-09-08T14:52:13;977.1;;;29.9;31.1
68873;BME280;55907;50.806;12.882;2023-09-08T14:55:14;977.1;;;29.7;31.1
68873;BME280;55907;50.806;12.882;2023-09-08T14:58:16;977.1;;;29.6;31.5
68873;BME280;55907;50.806;12.882;2023-09-08T15:01:17;977.1;;;29.6;31.7
68873;BME280;55907;50.806;12.882;2023-09-08T15:04:18;977.1;;;29.5;31.6
68873;BME280;55907;50.806;12.882;2023-09-08T15:07:19;977.1;;;29.5;32.0
68873;BME280;55907;50.806;12.882;2023-09-08T15:10:21;977.1;;;29.4;32.3
68873;BME280;55907;50.806;12.882;2023-09-08T15:13:22;977.1;;;29.3;32.3
68873;BME280;55907;50.806;12.882;2023-09-08T15:16:24;977.0;;;29.3;32.1
68873;BME280;55907;50.806;12.882;2023-09-08T15:19:25;977.0;;;29.2;32.5
68873;BME280;55907;50.806;12.882;2023-09-08T15:22:26;977.0;;;29.2;32.4
68873;BME280;55907;50.806;12.882;2023-09-08T15:25:28;977.0;;;29.1;32.9
68873;BME280;55907;50.806;12.882;2023-09-08T15:28:29;977.0;;;29.1;32.9
68873;BME280;55907;50.806;12.882;2023-09-08T15:31:30;976.9;;;29.1;32.5
68873;BME280;55907;50.806;12.882;2023-09-08T15:34:32;976.9;;;29.0;33.1
68873;BME280;55907;50.806;12.882;2023-09-08T15:37:33;976.9;;;28.9;32.9
68873;BME280;55907;50.806;12.882;2023-09-08T15:40:37;976.9;;;28.9;33.0
68873;BME280;55907;50.806;12.882;2023-09-08T15:43:37;976.9;;;28.9;34.2
68873;BME280;55907;50.806;12.882;2023-09-08T15:46:37;976.9;;;28.9;34.0
68873;BME280;55907;50.806;12.882;2023-09-08T15:49:39;976.9;;;28.9;34.2
68873;BME280;55907;50.806;12.882;2023-09-08T15:52:40;976.8;;;28.9;34.1
68873;BME280;55907;50.806;12.882;2023-09-08T15:55:41;976.8;;;28.8;33.9
68873;BME280;55907;50.806;12.882;2023-09-08T15:58:43;976.8;;;28.8;34.4
68873;BME280;55907;50.806;12.882;2023-09-08T16:01:44;976.8;;;28.7;34.4
68873;BME280;55907;50.806;12.882;2023-09-08T16:04:45;976.7;;;28.7;34.4
68873;BME280;55907;50.806;12.882;2023-09-08T16:07:47;976.7;;;28.5;34.3
68873;BME280;55907;50.806;12.882;2023-09-08T16:10:48;976.7;;;28.5;34.6
68873;BME280;55907;50.806;12.882;2023-09-08T16:13:50;976.7;;;28.5;35.1
68873;BME280;55907;50.806;12.882;2023-09-08T16:16:51;976.7;;;28.3;35.0
68873;BME280;55907;50.806;12.882;2023-09-08T16:19:52;976.8;;;28.1;34.9
68873;BME280;55907;50.806;12.882;2023-09-08T16:22:54;976.7;;;28.1;35.5
68873;BME280;55907;50.806;12.882;2023-09-08T16:25:56;976.7;;;28.0;35.7
68873;BME280;55907;50.806;12.882;2023-09-08T16:28:56;976.7;;;27.9;35.2
68873;BME280;55907;50.806;12.882;2023-09-08T16:31:58;976.6;;;27.8;35.7
68873;BME280;55907;50.806;12.882;2023-09-08T16:34:59;976.6;;;27.7;35.8
68873;BME280;55907;50.806;12.882;2023-09-08T16:38:01;976.7;;;27.6;36.2
68873;BME280;55907;50.806;12.882;2023-09-08T16:41:02;976.7;;;27.4;36.4
68873;BME280;55907;50.806;12.882;2023-09-08T16:44:04;976.7;;;27.4;36.6
68873;BME280;55907;50.806;12.882;2023-09-08T16:47:05;976.7;;;27.3;36.8
68873;BME280;55907;50.806;12.882;2023-09-08T16:50:07;976.6;;;27.3;37.2
68873;BME280;55907;50.806;12.882;2023-09-08T16:53:07;976.7;;;27.2;37.8
68873;BME280;55907;50.806;12.882;2023-09-08T16:56:09;976.7;;;27.0;37.8
68873;BME280;55907;50.806;12.882;2023-09-08T16:59:10;976.7;;;27.0;38.5